sensor_id;sensor_type;location;lat;lon;timestamp;P1;durP1;ratioP1;P2;durP2;ratioP2
47329;SDS011;33060;50.178;7.570;2024-01-15T00:02:03;23.83;;;8.73;;
47329;SDS011;33060;50.178;7.570;2024-01-15T00:04:29;28.85;;;8.95;;
47329;SDS011;33060;50.178;7.570;2024-01-15T00:06:56;26.77;;;8.73;;
47329;SDS011;33060;50.178;7.570;2024-01-15T00:09:23;29.58;;;9.75;;
47329;SDS011;33060;50.178;7.570;2024-01-15T00:11:50;27.25;;;8.32;;
47329;SDS011;33060;50.178;7.570;2024-01-15T00:14:17;29.00;;;9.43;;
47329;SDS011;33060;50.178;7.570;2024-01-15T00:16:46;29.95;;;10.43;;
47329;SDS011;33060;50.178;7.570;2024-01-15T00:19:15;29.00;;;10.23;;
47329;SDS011;33060;50.178;7.570;2024-01-15T00:21:42;28.50;;;10.35;;
47329;SDS011;33060;50.178;7.570;2024-01-15T00:24:09;25.27;;;9.02;;
47329;SDS011;33060;50.178;7.570;2024-01-15T00:26:36;27.70;;;9.05;;
47329;SDS011;33060;50.178;7.570;2024-01-15T00:29:03;25.85;;;10.50;;
47329;SDS011;33060;50.178;7.570;2024-01-15T00:31:30;26.15;;;9.60;;
47329;SDS011;33060;50.178;7.570;2024-01-15T00:33:57;24.95;;;7.88;;
47329;SDS011;33060;50.178;7.570;2024-01-15T00:36:27;29.33;;;9.88;;
47329;SDS011;33060;50.178;7.570;2024-01-15T00:38:54;29.63;;;9.50;;
47329;SDS011;33060;50.178;7.570;2024-01-15T00:41:20;24.77;;;8.80;;
47329;SDS011;33060;50.178;7.570;2024-01-15T00:43:47;26.98;;;9.43;;
47329;SDS011;33060;50.178;7.570;2024-01-15T00:46:15;28.63;;;9.10;;
47329;SDS011;33060;50.178;7.570;2024-01-15T00:48:42;27.38;;;8.63;;
47329;SDS011;33060;50.178;7.570;2024-01-15T00:51:09;24.63;;;9.05;;
47329;SDS011;33060;50.178;7.570;2024-01-15T00:53:35;25.25;;;8.85;;
47329;SDS011;33060;50.178;7.570;2024-01-15T00:56:03;27.92;;;10.82;;
47329;SDS011;33060;50.178;7.570;2024-01-15T00:58:29;24.42;;;8.80;;
47329;SDS011;33060;50.178;7.570;2024-01-15T01:00:56;25.35;;;9.07;;
47329;SDS011;33060;50.178;7.570;2024-01-15T01:03:23;26.27;;;9.07;;
47329;SDS011;33060;50.178;7.570;2024-01-15T01:05:50;27.50;;;9.55;;
47329;SDS011;33060;50.178;7.570;2024-01-15T01:08:17;25.85;;;8.38;;
47329;SDS011;33060;50.178;7.570;2024-01-15T01:10:43;22.55;;;7.72;;
47329;SDS011;33060;50.178;7.570;2024-01-15T01:13:10;26.88;;;9.80;;
47329;SDS011;33060;50.178;7.570;2024-01-15T01:15:37;28.42;;;9.95;;
47329;SDS011;33060;50.178;7.570;2024-01-15T01:18:05;28.25;;;9.40;;
47329;SDS011;33060;50.178;7.570;2024-01-15T01:20:32;27.90;;;8.88;;
47329;SDS011;33060;50.178;7.570;2024-01-15T01:22:59;27.48;;;8.60;;
47329;SDS011;33060;50.178;7.570;2024-01-15T01:25:26;25.88;;;9.57;;
47329;SDS011;33060;50.178;7.570;2024-01-15T01:27:53;29.35;;;8.63;;
47329;SDS011;33060;50.178;7.570;2024-01-15T01:30:20;27.50;;;9.63;;
47329;SDS011;33060;50.178;7.570;2024-01-15T01:32:47;21.23;;;8.73;;
47329;SDS011;33060;50.178;7.570;2024-01-15T01:35:13;36.10;;;10.15;;
47329;SDS011;33060;50.178;7.570;2024-01-15T01:37:40;31.75;;;9.95;;
47329;SDS011;33060;50.178;7.570;2024-01-15T01:40:07;34.15;;;11.30;;
47329;SDS011;33060;50.178;7.570;2024-01-15T01:42:34;25.90;;;10.00;;
47329;SDS011;33060;50.178;7.570;2024-01-15T01:45:01;30.48;;;9.27;;
47329;SDS011;33060;50.178;7.570;2024-01-15T01:47:28;28.65;;;8.77;;
47329;SDS011;33060;50.178;7.570;2024-01-15T01:49:55;28.17;;;8.43;;
47329;SDS011;33060;50.178;7.570;2024-01-15T01:52:22;24.40;;;8.82;;
47329;SDS011;33060;50.178;7.570;2024-01-15T01:54:49;31.58;;;9.57;;
47329;SDS011;33060;50.178;7.570;2024-01-15T01:57:17;27.05;;;9.45;;
47329;SDS011;33060;50.178;7.570;2024-01-15T01:59:45;26.38;;;9.68;;
47329;SDS011;33060;50.178;7.570;2024-01-15T02:02:13;30.58;;;10.68;;
47329;SDS011;33060;50.178;7.570;2024-01-15T02:04:40;28.98;;;9.75;;
47329;SDS011;33060;50.178;7.570;2024-01-15T02:07:07;23.98;;;9.30;;
47329;SDS011;33060;50.178;7.570;2024-01-15T02:09:34;25.33;;;8.65;;
47329;SDS011;33060;50.178;7.570;2024-01-15T02:12:01;28.58;;;9.82;;
47329;SDS011;33060;50.178;7.570;2024-01-15T02:14:28;25.55;;;9.77;;
47329;SDS011;33060;50.178;7.570;2024-01-15T02:16:54;27.45;;;9.60;;
47329;SDS011;33060;50.178;7.570;2024-01-15T02:19:21;29.98;;;9.13;;
47329;SDS011;33060;50.178;7.570;2024-01-15T02:21:48;28.48;;;8.93;;
47329;SDS011;33060;50.178;7.570;2024-01-15T02:24:15;25.38;;;9.65;;
47329;SDS011;33060;50.178;7.570;2024-01-15T02:26:42;28.30;;;8.60;;
47329;SDS011;33060;50.178;7.570;2024-01-15T02:31:36;27.95;;;9.88;;
47329;SDS011;33060;50.178;7.570;2024-01-15T02:34:04;26.58;;;9.32;;
47329;SDS011;33060;50.178;7.570;2024-01-15T02:36:31;24.73;;;9.32;;
47329;SDS011;33060;50.178;7.570;2024-01-15T02:38:58;27.90;;;9.13;;
47329;SDS011;33060;50.178;7.570;2024-01-15T02:41:25;24.27;;;8.20;;
47329;SDS011;33060;50.178;7.570;2024-01-15T02:43:51;29.75;;;9.88;;
47329;SDS011;33060;50.178;7.570;2024-01-15T02:46:18;33.63;;;11.55;;
47329;SDS011;33060;50.178;7.570;2024-01-15T02:48:45;23.77;;;8.77;;
47329;SDS011;33060;50.178;7.570;2024-01-15T02:51:12;27.02;;;8.18;;
47329;SDS011;33060;50.178;7.570;2024-01-15T02:53:38;30.15;;;9.48;;
47329;SDS011;33060;50.178;7.570;2024-01-15T02:56:06;32.10;;;10.75;;
47329;SDS011;33060;50.178;7.570;2024-01-15T02:58:34;28.77;;;9.43;;
47329;SDS011;33060;50.178;7.570;2024-01-15T03:01:00;28.00;;;10.10;;
47329;SDS011;33060;50.178;7.570;2024-01-15T03:03:27;31.25;;;10.00;;
47329;SDS011;33060;50.178;7.570;2024-01-15T03:05:55;30.05;;;9.90;;
47329;SDS011;33060;50.178;7.570;2024-01-15T03:08:21;27.20;;;9.52;;
47329;SDS011;33060;50.178;7.570;2024-01-15T03:10:49;29.48;;;8.98;;
47329;SDS011;33060;50.178;7.570;2024-01-15T03:13:16;27.13;;;9.52;;
47329;SDS011;33060;50.178;7.570;2024-01-15T03:15:42;31.95;;;11.25;;
47329;SDS011;33060;50.178;7.570;2024-01-15T03:18:09;27.35;;;9.55;;
47329;SDS011;33060;50.178;7.570;2024-01-15T03:20:36;36.17;;;10.52;;
47329;SDS011;33060;50.178;7.570;2024-01-15T03:23:03;31.50;;;9.80;;
47329;SDS011;33060;50.178;7.570;2024-01-15T03:25:30;31.42;;;10.63;;
47329;SDS011;33060;50.178;7.570;2024-01-15T03:27:57;23.13;;;8.70;;
47329;SDS011;33060;50.178;7.570;2024-01-15T03:30:23;32.78;;;10.30;;
47329;SDS011;33060;50.178;7.570;2024-01-15T03:32:50;27.92;;;9.77;;
47329;SDS011;33060;50.178;7.570;2024-01-15T03:35:17;32.97;;;10.43;;
47329;SDS011;33060;50.178;7.570;2024-01-15T03:37:44;27.95;;;10.07;;
47329;SDS011;33060;50.178;7.570;2024-01-15T03:40:10;32.95;;;11.40;;
47329;SDS011;33060;50.178;7.570;2024-01-15T03:42:37;28.02;;;10.05;;
47329;SDS011;33060;50.178;7.570;2024-01-15T03:45:04;33.10;;;10.43;;
47329;SDS011;33060;50.178;7.570;2024-01-15T03:47:31;35.28;;;11.82;;
47329;SDS011;33060;50.178;7.570;2024-01-15T03:49:59;28.10;;;9.30;;
47329;SDS011;33060;50.178;7.570;2024-01-15T03:52:26;25.45;;;8.75;;
47329;SDS011;33060;50.178;7.570;2024-01-15T03:54:52;34.35;;;9.98;;
47329;SDS011;33060;50.178;7.570;2024-01-15T03:57:19;28.77;;;9.88;;
47329;SDS011;33060;50.178;7.570;2024-01-15T03:59:46;32.08;;;10.40;;
47329;SDS011;33060;50.178;7.570;2024-01-15T04:04:41;28.85;;;9.77;;
47329;SDS011;33060;50.178;7.570;2024-01-15T04:07:09;28.52;;;10.57;;
47329;SDS011;33060;50.178;7.570;2024-01-15T04:09:36;28.98;;;9.35;;
47329;SDS011;33060;50.178;7.570;2024-01-15T04:12:03;32.22;;;12.30;;
47329;SDS011;33060;50.178;7.570;2024-01-15T04:14:30;31.50;;;11.02;;
47329;SDS011;33060;50.178;7.570;2024-01-15T04:16:56;29.38;;;9.45;;
47329;SDS011;33060;50.178;7.570;2024-01-15T04:19:23;39.03;;;11.13;;
47329;SDS011;33060;50.178;7.570;2024-01-15T04:21:50;37.75;;;10.82;;
47329;SDS011;33060;50.178;7.570;2024-01-15T04:24:17;30.55;;;11.20;;
47329;SDS011;33060;50.178;7.570;2024-01-15T04:26:44;30.73;;;10.75;;
47329;SDS011;33060;50.178;7.570;2024-01-15T04:29:11;33.78;;;10.30;;
47329;SDS011;33060;50.178;7.570;2024-01-15T04:31:38;34.63;;;10.68;;
47329;SDS011;33060;50.178;7.570;2024-01-15T04:34:05;30.50;;;9.32;;
47329;SDS011;33060;50.178;7.570;2024-01-15T04:36:37;28.00;;;10.70;;
47329;SDS011;33060;50.178;7.570;2024-01-15T04:39:05;30.90;;;10.68;;
47329;SDS011;33060;50.178;7.570;2024-01-15T04:41:32;30.60;;;10.32;;
47329;SDS011;33060;50.178;7.570;2024-01-15T04:43:58;29.48;;;9.45;;
47329;SDS011;33060;50.178;7.570;2024-01-15T04:46:27;32.53;;;9.77;;
47329;SDS011;33060;50.178;7.570;2024-01-15T04:48:54;33.15;;;11.02;;
47329;SDS011;33060;50.178;7.570;2024-01-15T04:51:21;32.35;;;11.48;;
47329;SDS011;33060;50.178;7.570;2024-01-15T04:53:47;30.52;;;9.82;;
47329;SDS011;33060;50.178;7.570;2024-01-15T04:56:14;31.95;;;10.75;;
47329;SDS011;33060;50.178;7.570;2024-01-15T04:58:41;28.77;;;10.55;;
47329;SDS011;33060;50.178;7.570;2024-01-15T05:01:08;30.80;;;10.60;;
47329;SDS011;33060;50.178;7.570;2024-01-15T05:03:35;34.13;;;10.80;;
47329;SDS011;33060;50.178;7.570;2024-01-15T05:06:02;29.77;;;8.95;;
47329;SDS011;33060;50.178;7.570;2024-01-15T05:08:29;33.40;;;10.85;;
47329;SDS011;33060;50.178;7.570;2024-01-15T05:10:56;31.00;;;10.68;;
47329;SDS011;33060;50.178;7.570;2024-01-15T05:13:23;34.78;;;11.32;;
47329;SDS011;33060;50.178;7.570;2024-01-15T05:15:50;39.95;;;12.00;;
47329;SDS011;33060;50.178;7.570;2024-01-15T05:18:17;34.67;;;11.18;;
47329;SDS011;33060;50.178;7.570;2024-01-15T05:20:44;38.55;;;10.65;;
47329;SDS011;33060;50.178;7.570;2024-01-15T05:23:11;36.85;;;11.60;;
47329;SDS011;33060;50.178;7.570;2024-01-15T05:25:37;33.95;;;12.15;;
47329;SDS011;33060;50.178;7.570;2024-01-15T05:28:04;37.58;;;11.15;;
47329;SDS011;33060;50.178;7.570;2024-01-15T05:30:32;30.85;;;10.27;;
47329;SDS011;33060;50.178;7.570;2024-01-15T05:32:58;34.40;;;10.82;;
47329;SDS011;33060;50.178;7.570;2024-01-15T05:35:26;37.50;;;11.45;;
47329;SDS011;33060;50.178;7.570;2024-01-15T05:37:53;36.00;;;11.13;;
47329;SDS011;33060;50.178;7.570;2024-01-15T05:40:20;33.65;;;11.63;;
47329;SDS011;33060;50.178;7.570;2024-01-15T05:42:47;40.08;;;11.88;;
47329;SDS011;33060;50.178;7.570;2024-01-15T05:45:13;38.05;;;12.43;;
47329;SDS011;33060;50.178;7.570;2024-01-15T05:47:40;32.38;;;11.05;;
47329;SDS011;33060;50.178;7.570;2024-01-15T05:50:08;35.03;;;11.43;;
47329;SDS011;33060;50.178;7.570;2024-01-15T05:52:35;36.20;;;11.10;;
47329;SDS011;33060;50.178;7.570;2024-01-15T05:55:03;36.05;;;11.88;;
47329;SDS011;33060;50.178;7.570;2024-01-15T05:57:30;31.95;;;11.13;;
47329;SDS011;33060;50.178;7.570;2024-01-15T05:59:57;32.13;;;12.45;;
47329;SDS011;33060;50.178;7.570;2024-01-15T06:02:24;33.38;;;10.35;;
47329;SDS011;33060;50.178;7.570;2024-01-15T06:04:51;37.25;;;12.88;;
47329;SDS011;33060;50.178;7.570;2024-01-15T06:07:17;34.42;;;11.70;;
47329;SDS011;33060;50.178;7.570;2024-01-15T06:09:44;35.83;;;11.48;;
47329;SDS011;33060;50.178;7.570;2024-01-15T06:14:38;33.78;;;12.32;;
47329;SDS011;33060;50.178;7.570;2024-01-15T06:17:05;39.20;;;12.07;;
47329;SDS011;33060;50.178;7.570;2024-01-15T06:19:32;34.30;;;10.52;;
47329;SDS011;33060;50.178;7.570;2024-01-15T06:21:59;30.65;;;10.77;;
47329;SDS011;33060;50.178;7.570;2024-01-15T06:24:26;33.47;;;11.48;;
47329;SDS011;33060;50.178;7.570;2024-01-15T06:26:52;34.88;;;13.00;;
47329;SDS011;33060;50.178;7.570;2024-01-15T06:29:19;33.33;;;11.82;;
47329;SDS011;33060;50.178;7.570;2024-01-15T06:31:46;34.80;;;11.23;;
47329;SDS011;33060;50.178;7.570;2024-01-15T06:34:14;33.25;;;11.80;;
47329;SDS011;33060;50.178;7.570;2024-01-15T06:36:41;36.95;;;11.60;;
47329;SDS011;33060;50.178;7.570;2024-01-15T06:39:08;33.00;;;10.90;;
47329;SDS011;33060;50.178;7.570;2024-01-15T06:41:36;33.63;;;11.85;;
47329;SDS011;33060;50.178;7.570;2024-01-15T06:44:10;32.40;;;11.10;;
47329;SDS011;33060;50.178;7.570;2024-01-15T06:46:41;35.17;;;10.55;;
47329;SDS011;33060;50.178;7.570;2024-01-15T06:49:18;32.25;;;11.07;;
47329;SDS011;33060;50.178;7.570;2024-01-15T06:51:44;26.92;;;10.43;;
47329;SDS011;33060;50.178;7.570;2024-01-15T06:54:14;28.42;;;10.52;;
47329;SDS011;33060;50.178;7.570;2024-01-15T06:56:41;34.90;;;11.35;;
47329;SDS011;33060;50.178;7.570;2024-01-15T06:59:08;30.75;;;11.32;;
47329;SDS011;33060;50.178;7.570;2024-01-15T07:01:34;31.23;;;10.63;;
47329;SDS011;33060;50.178;7.570;2024-01-15T07:04:01;31.48;;;10.00;;
47329;SDS011;33060;50.178;7.570;2024-01-15T07:06:28;29.55;;;10.63;;
47329;SDS011;33060;50.178;7.570;2024-01-15T07:08:55;30.02;;;13.02;;
47329;SDS011;33060;50.178;7.570;2024-01-15T07:11:21;26.10;;;9.20;;
47329;SDS011;33060;50.178;7.570;2024-01-15T07:13:48;34.53;;;12.18;;
47329;SDS011;33060;50.178;7.570;2024-01-15T07:16:15;27.80;;;10.25;;
47329;SDS011;33060;50.178;7.570;2024-01-15T07:19:02;30.98;;;11.88;;
47329;SDS011;33060;50.178;7.570;2024-01-15T07:21:28;29.33;;;12.07;;
47329;SDS011;33060;50.178;7.570;2024-01-15T07:23:56;33.00;;;12.23;;
47329;SDS011;33060;50.178;7.570;2024-01-15T07:26:23;31.33;;;11.30;;
47329;SDS011;33060;50.178;7.570;2024-01-15T07:28:50;31.80;;;10.95;;
47329;SDS011;33060;50.178;7.570;2024-01-15T07:31:17;33.55;;;12.40;;
47329;SDS011;33060;50.178;7.570;2024-01-15T07:36:11;31.58;;;11.40;;
47329;SDS011;33060;50.178;7.570;2024-01-15T07:38:37;31.20;;;11.75;;
47329;SDS011;33060;50.178;7.570;2024-01-15T07:41:04;33.00;;;11.32;;
47329;SDS011;33060;50.178;7.570;2024-01-15T07:43:31;31.25;;;10.95;;
47329;SDS011;33060;50.178;7.570;2024-01-15T07:45:57;31.38;;;11.60;;
47329;SDS011;33060;50.178;7.570;2024-01-15T07:48:25;31.95;;;12.07;;
47329;SDS011;33060;50.178;7.570;2024-01-15T07:50:52;29.20;;;11.55;;
47329;SDS011;33060;50.178;7.570;2024-01-15T07:53:19;29.58;;;10.73;;
47329;SDS011;33060;50.178;7.570;2024-01-15T07:55:46;26.50;;;10.88;;
47329;SDS011;33060;50.178;7.570;2024-01-15T07:58:12;29.83;;;10.98;;
47329;SDS011;33060;50.178;7.570;2024-01-15T08:00:42;36.63;;;11.00;;
47329;SDS011;33060;50.178;7.570;2024-01-15T08:05:36;30.92;;;12.00;;
47329;SDS011;33060;50.178;7.570;2024-01-15T08:08:03;28.58;;;11.82;;
47329;SDS011;33060;50.178;7.570;2024-01-15T08:10:30;28.25;;;11.77;;
47329;SDS011;33060;50.178;7.570;2024-01-15T08:12:57;28.80;;;10.02;;
47329;SDS011;33060;50.178;7.570;2024-01-15T08:15:24;32.95;;;11.85;;
47329;SDS011;33060;50.178;7.570;2024-01-15T08:17:55;32.95;;;12.10;;
47329;SDS011;33060;50.178;7.570;2024-01-15T08:20:22;28.77;;;11.73;;
47329;SDS011;33060;50.178;7.570;2024-01-15T08:22:49;27.83;;;9.93;;
47329;SDS011;33060;50.178;7.570;2024-01-15T08:25:16;30.33;;;12.38;;
47329;SDS011;33060;50.178;7.570;2024-01-15T08:27:42;27.23;;;10.50;;
47329;SDS011;33060;50.178;7.570;2024-01-15T08:30:09;27.02;;;10.82;;
47329;SDS011;33060;50.178;7.570;2024-01-15T08:32:36;24.38;;;10.30;;
47329;SDS011;33060;50.178;7.570;2024-01-15T08:35:07;31.40;;;11.88;;
47329;SDS011;33060;50.178;7.570;2024-01-15T08:37:36;28.85;;;12.18;;
47329;SDS011;33060;50.178;7.570;2024-01-15T08:40:04;24.20;;;9.32;;
47329;SDS011;33060;50.178;7.570;2024-01-15T08:42:31;23.65;;;9.30;;
47329;SDS011;33060;50.178;7.570;2024-01-15T08:44:57;27.58;;;11.60;;
47329;SDS011;33060;50.178;7.570;2024-01-15T08:47:24;24.77;;;10.10;;
47329;SDS011;33060;50.178;7.570;2024-01-15T08:49:52;26.10;;;10.15;;
47329;SDS011;33060;50.178;7.570;2024-01-15T08:52:19;26.08;;;10.55;;
47329;SDS011;33060;50.178;7.570;2024-01-15T08:54:46;23.13;;;9.43;;
47329;SDS011;33060;50.178;7.570;2024-01-15T08:57:13;27.30;;;10.48;;
47329;SDS011;33060;50.178;7.570;2024-01-15T08:59:40;30.20;;;10.45;;
47329;SDS011;33060;50.178;7.570;2024-01-15T09:02:07;28.73;;;10.32;;
47329;SDS011;33060;50.178;7.570;2024-01-15T09:04:34;24.63;;;10.27;;
47329;SDS011;33060;50.178;7.570;2024-01-15T09:07:01;26.63;;;9.57;;
47329;SDS011;33060;50.178;7.570;2024-01-15T09:09:28;25.77;;;9.50;;
47329;SDS011;33060;50.178;7.570;2024-01-15T09:11:55;22.13;;;8.93;;
47329;SDS011;33060;50.178;7.570;2024-01-15T09:14:22;24.80;;;9.73;;
47329;SDS011;33060;50.178;7.570;2024-01-15T09:17:03;23.67;;;10.45;;
47329;SDS011;33060;50.178;7.570;2024-01-15T09:19:31;24.50;;;9.55;;
47329;SDS011;33060;50.178;7.570;2024-01-15T09:21:58;21.38;;;9.20;;
47329;SDS011;33060;50.178;7.570;2024-01-15T09:24:25;21.02;;;8.75;;
47329;SDS011;33060;50.178;7.570;2024-01-15T09:26:54;21.73;;;9.00;;
47329;SDS011;33060;50.178;7.570;2024-01-15T09:31:50;18.10;;;7.68;;
47329;SDS011;33060;50.178;7.570;2024-01-15T09:34:17;25.77;;;8.82;;
47329;SDS011;33060;50.178;7.570;2024-01-15T09:36:44;19.75;;;8.02;;
47329;SDS011;33060;50.178;7.570;2024-01-15T09:39:11;20.50;;;9.35;;
47329;SDS011;33060;50.178;7.570;2024-01-15T09:41:38;20.42;;;8.88;;
47329;SDS011;33060;50.178;7.570;2024-01-15T09:46:34;24.73;;;10.18;;
47329;SDS011;33060;50.178;7.570;2024-01-15T09:49:01;22.95;;;9.02;;
47329;SDS011;33060;50.178;7.570;2024-01-15T09:51:31;19.85;;;8.45;;
47329;SDS011;33060;50.178;7.570;2024-01-15T09:53:58;22.50;;;9.80;;
47329;SDS011;33060;50.178;7.570;2024-01-15T09:56:25;20.73;;;8.25;;
47329;SDS011;33060;50.178;7.570;2024-01-15T09:58:52;22.80;;;10.02;;
47329;SDS011;33060;50.178;7.570;2024-01-15T10:03:49;20.40;;;8.23;;
47329;SDS011;33060;50.178;7.570;2024-01-15T10:06:17;17.92;;;7.65;;
47329;SDS011;33060;50.178;7.570;2024-01-15T10:08:49;22.33;;;9.35;;
47329;SDS011;33060;50.178;7.570;2024-01-15T10:11:17;19.48;;;8.32;;
47329;SDS011;33060;50.178;7.570;2024-01-15T10:13:44;21.85;;;8.63;;
47329;SDS011;33060;50.178;7.570;2024-01-15T10:16:12;20.58;;;8.48;;
47329;SDS011;33060;50.178;7.570;2024-01-15T10:18:39;19.02;;;9.18;;
47329;SDS011;33060;50.178;7.570;2024-01-15T10:23:34;20.13;;;7.88;;
47329;SDS011;33060;50.178;7.570;2024-01-15T10:26:00;21.55;;;8.98;;
47329;SDS011;33060;50.178;7.570;2024-01-15T10:28:27;22.45;;;9.25;;
47329;SDS011;33060;50.178;7.570;2024-01-15T10:30:56;21.00;;;9.32;;
47329;SDS011;33060;50.178;7.570;2024-01-15T10:33:25;18.80;;;8.27;;
47329;SDS011;33060;50.178;7.570;2024-01-15T10:35:56;22.58;;;9.35;;
47329;SDS011;33060;50.178;7.570;2024-01-15T10:38:24;23.10;;;8.93;;
47329;SDS011;33060;50.178;7.570;2024-01-15T10:40:51;26.60;;;10.93;;
47329;SDS011;33060;50.178;7.570;2024-01-15T10:43:19;25.15;;;9.25;;
47329;SDS011;33060;50.178;7.570;2024-01-15T10:45:50;23.67;;;10.57;;
47329;SDS011;33060;50.178;7.570;2024-01-15T10:48:18;21.17;;;9.52;;
47329;SDS011;33060;50.178;7.570;2024-01-15T10:50:46;22.73;;;9.07;;
47329;SDS011;33060;50.178;7.570;2024-01-15T10:53:14;24.45;;;10.38;;
47329;SDS011;33060;50.178;7.570;2024-01-15T10:55:42;21.25;;;9.35;;
47329;SDS011;33060;50.178;7.570;2024-01-15T11:00:36;20.55;;;9.23;;
47329;SDS011;33060;50.178;7.570;2024-01-15T11:03:07;20.85;;;8.75;;
47329;SDS011;33060;50.178;7.570;2024-01-15T11:05:44;22.90;;;9.07;;
47329;SDS011;33060;50.178;7.570;2024-01-15T11:08:11;21.40;;;8.98;;
47329;SDS011;33060;50.178;7.570;2024-01-15T11:13:08;20.05;;;8.32;;
47329;SDS011;33060;50.178;7.570;2024-01-15T11:15:57;20.88;;;8.88;;
47329;SDS011;33060;50.178;7.570;2024-01-15T11:18:28;20.38;;;9.07;;
47329;SDS011;33060;50.178;7.570;2024-01-15T11:23:48;19.88;;;8.55;;
47329;SDS011;33060;50.178;7.570;2024-01-15T11:26:29;20.98;;;8.82;;
47329;SDS011;33060;50.178;7.570;2024-01-15T11:28:58;24.67;;;10.02;;
47329;SDS011;33060;50.178;7.570;2024-01-15T11:31:30;21.38;;;9.02;;
47329;SDS011;33060;50.178;7.570;2024-01-15T11:34:16;18.02;;;8.45;;
47329;SDS011;33060;50.178;7.570;2024-01-15T11:42:02;18.88;;;8.95;;
47329;SDS011;33060;50.178;7.570;2024-01-15T11:44:30;19.90;;;9.23;;
47329;SDS011;33060;50.178;7.570;2024-01-15T11:47:01;19.60;;;8.43;;
47329;SDS011;33060;50.178;7.570;2024-01-15T11:52:02;18.80;;;7.75;;
47329;SDS011;33060;50.178;7.570;2024-01-15T11:54:32;20.30;;;7.80;;
47329;SDS011;33060;50.178;7.570;2024-01-15T11:57:04;21.25;;;8.88;;
47329;SDS011;33060;50.178;7.570;2024-01-15T11:59:36;16.15;;;7.35;;
47329;SDS011;33060;50.178;7.570;2024-01-15T12:02:02;20.42;;;8.75;;
47329;SDS011;33060;50.178;7.570;2024-01-15T12:04:29;22.30;;;9.80;;
47329;SDS011;33060;50.178;7.570;2024-01-15T12:06:56;18.92;;;8.45;;
47329;SDS011;33060;50.178;7.570;2024-01-15T12:09:23;17.50;;;8.25;;
47329;SDS011;33060;50.178;7.570;2024-01-15T12:14:21;19.80;;;8.07;;
47329;SDS011;33060;50.178;7.570;2024-01-15T12:16:48;18.35;;;8.07;;
47329;SDS011;33060;50.178;7.570;2024-01-15T12:19:15;15.40;;;6.15;;
47329;SDS011;33060;50.178;7.570;2024-01-15T12:21:42;19.45;;;8.20;;
47329;SDS011;33060;50.178;7.570;2024-01-15T12:24:11;22.92;;;9.40;;
47329;SDS011;33060;50.178;7.570;2024-01-15T12:29:06;17.77;;;7.40;;
47329;SDS011;33060;50.178;7.570;2024-01-15T12:31:33;20.45;;;8.98;;
47329;SDS011;33060;50.178;7.570;2024-01-15T12:34:01;20.58;;;9.45;;
47329;SDS011;33060;50.178;7.570;2024-01-15T12:36:31;15.02;;;7.07;;
47329;SDS011;33060;50.178;7.570;2024-01-15T12:39:01;16.50;;;6.70;;
47329;SDS011;33060;50.178;7.570;2024-01-15T12:41:28;17.60;;;7.65;;
47329;SDS011;33060;50.178;7.570;2024-01-15T12:43:54;18.85;;;7.65;;
47329;SDS011;33060;50.178;7.570;2024-01-15T12:46:21;18.08;;;8.23;;
47329;SDS011;33060;50.178;7.570;2024-01-15T12:48:49;17.30;;;7.20;;
47329;SDS011;33060;50.178;7.570;2024-01-15T12:51:16;16.85;;;7.03;;
47329;SDS011;33060;50.178;7.570;2024-01-15T12:53:43;19.70;;;7.50;;
47329;SDS011;33060;50.178;7.570;2024-01-15T12:56:10;17.90;;;7.88;;
47329;SDS011;33060;50.178;7.570;2024-01-15T12:58:36;14.70;;;6.90;;
47329;SDS011;33060;50.178;7.570;2024-01-15T13:01:03;15.68;;;6.50;;
47329;SDS011;33060;50.178;7.570;2024-01-15T13:03:30;15.90;;;7.30;;
47329;SDS011;33060;50.178;7.570;2024-01-15T13:05:57;16.70;;;7.22;;
47329;SDS011;33060;50.178;7.570;2024-01-15T13:08:24;14.43;;;6.35;;
47329;SDS011;33060;50.178;7.570;2024-01-15T13:10:53;15.57;;;7.60;;
47329;SDS011;33060;50.178;7.570;2024-01-15T13:13:23;14.60;;;6.85;;
47329;SDS011;33060;50.178;7.570;2024-01-15T13:15:49;13.85;;;6.57;;
47329;SDS011;33060;50.178;7.570;2024-01-15T13:18:16;12.63;;;5.95;;
47329;SDS011;33060;50.178;7.570;2024-01-15T13:20:43;12.10;;;5.80;;
47329;SDS011;33060;50.178;7.570;2024-01-15T13:23:10;12.82;;;5.15;;
47329;SDS011;33060;50.178;7.570;2024-01-15T13:25:38;14.15;;;6.70;;
47329;SDS011;33060;50.178;7.570;2024-01-15T13:28:05;15.05;;;6.57;;
47329;SDS011;33060;50.178;7.570;2024-01-15T13:30:32;15.45;;;6.10;;
47329;SDS011;33060;50.178;7.570;2024-01-15T13:32:59;12.27;;;6.10;;
47329;SDS011;33060;50.178;7.570;2024-01-15T13:35:31;13.30;;;5.93;;
47329;SDS011;33060;50.178;7.570;2024-01-15T13:37:58;15.00;;;5.85;;
47329;SDS011;33060;50.178;7.570;2024-01-15T13:40:24;15.60;;;6.20;;
47329;SDS011;33060;50.178;7.570;2024-01-15T13:42:51;10.70;;;5.15;;
47329;SDS011;33060;50.178;7.570;2024-01-15T13:45:19;11.88;;;5.78;;
47329;SDS011;33060;50.178;7.570;2024-01-15T13:47:46;13.20;;;5.80;;
47329;SDS011;33060;50.178;7.570;2024-01-15T13:50:13;11.45;;;4.93;;
47329;SDS011;33060;50.178;7.570;2024-01-15T13:52:40;13.63;;;5.55;;
47329;SDS011;33060;50.178;7.570;2024-01-15T13:57:35;13.63;;;6.28;;
47329;SDS011;33060;50.178;7.570;2024-01-15T14:00:02;13.57;;;5.45;;
47329;SDS011;33060;50.178;7.570;2024-01-15T14:02:35;13.52;;;6.07;;
47329;SDS011;33060;50.178;7.570;2024-01-15T14:05:02;12.52;;;5.72;;
47329;SDS011;33060;50.178;7.570;2024-01-15T14:07:29;14.13;;;5.82;;
47329;SDS011;33060;50.178;7.570;2024-01-15T14:09:56;9.38;;;4.93;;
47329;SDS011;33060;50.178;7.570;2024-01-15T14:12:24;12.55;;;5.55;;
47329;SDS011;33060;50.178;7.570;2024-01-15T14:14:53;12.45;;;5.35;;
47329;SDS011;33060;50.178;7.570;2024-01-15T14:17:19;11.82;;;4.88;;
47329;SDS011;33060;50.178;7.570;2024-01-15T14:19:46;11.48;;;4.72;;
47329;SDS011;33060;50.178;7.570;2024-01-15T14:22:13;11.88;;;4.78;;
47329;SDS011;33060;50.178;7.570;2024-01-15T14:24:40;9.98;;;4.57;;
47329;SDS011;33060;50.178;7.570;2024-01-15T14:27:06;9.93;;;4.18;;
47329;SDS011;33060;50.178;7.570;2024-01-15T14:32:00;7.25;;;2.97;;
47329;SDS011;33060;50.178;7.570;2024-01-15T14:34:28;9.52;;;2.70;;
47329;SDS011;33060;50.178;7.570;2024-01-15T14:36:55;6.18;;;2.33;;
47329;SDS011;33060;50.178;7.570;2024-01-15T14:39:22;11.48;;;3.38;;
47329;SDS011;33060;50.178;7.570;2024-01-15T14:41:49;10.82;;;3.25;;
47329;SDS011;33060;50.178;7.570;2024-01-15T14:44:16;5.82;;;2.25;;
47329;SDS011;33060;50.178;7.570;2024-01-15T14:46:53;5.97;;;2.20;;
47329;SDS011;33060;50.178;7.570;2024-01-15T14:49:20;6.63;;;2.92;;
47329;SDS011;33060;50.178;7.570;2024-01-15T14:51:48;5.82;;;2.20;;
47329;SDS011;33060;50.178;7.570;2024-01-15T14:54:16;7.90;;;2.65;;
47329;SDS011;33060;50.178;7.570;2024-01-15T14:56:42;5.22;;;2.10;;
47329;SDS011;33060;50.178;7.570;2024-01-15T14:59:09;5.07;;;1.52;;
47329;SDS011;33060;50.178;7.570;2024-01-15T15:01:35;9.23;;;1.17;;
47329;SDS011;33060;50.178;7.570;2024-01-15T15:04:02;6.45;;;1.10;;
47329;SDS011;33060;50.178;7.570;2024-01-15T15:06:30;3.42;;;1.08;;
47329;SDS011;33060;50.178;7.570;2024-01-15T15:08:57;6.60;;;1.70;;
47329;SDS011;33060;50.178;7.570;2024-01-15T15:11:26;3.25;;;1.00;;
47329;SDS011;33060;50.178;7.570;2024-01-15T15:13:53;4.47;;;1.20;;
47329;SDS011;33060;50.178;7.570;2024-01-15T15:16:20;5.18;;;1.42;;
47329;SDS011;33060;50.178;7.570;2024-01-15T15:18:46;5.35;;;1.33;;
47329;SDS011;33060;50.178;7.570;2024-01-15T15:21:13;7.32;;;1.08;;